Bonanza, Kentucky
Current Conditions -  °F | °C
As of 9:55 PM on Sunday 21 Dec 2014 (Local Time) from KSJS Reporting Station
Broken Clouds Broken Clouds  
Wind Chill: 33°   Ceiling: 4400
Heat Index: 33°   Visibility: 10mi
Dew Point: 28°   Wind: 3mph
Humidity: 79%   Direction: 60°ENE
Pressure: 30.12"   Gusts: NA
Location:  37.6405°N, 82.8256°W
Report Text: KSJS 220255Z AUTO 06003KT 10SM BKN044 01/M02 A3012 RMK AO2 T00071025
Loading
Personal Weather Stations






























Interactive Weather Map New forecast layout! Learn more

10-Day Weather Forecast

Advertisements
Track Severe Weather on mobile